Sandy Creek, TX (76556)

3:37 PM CDT on August 29, 2014 (GMT -0500)
east cameron | Change Station
CLOSE
Current Station
Personal Weather Station
Location: Cameron, TX
Elevation: 404 ft
Nearby Weather Stations

Elev 404 ft 30.86 °N, 96.96 °W | Updated 1 minute ago

Thunderstorm
Thunderstorm
89.8 °F
Feels Like 97 °F
N
3.7
Wind Variable Wind from East

Today
High -- | Low -- °F
--% Chance of Precip.
Yesterday
High -- | Low -- °F
Precip. -- in
7:01 AM 7:53 PM
Waxing Crescent, 16% visible
Pressure 29.84 in
Visibility 10.0 miles
Clouds Scattered Clouds 8500 ft
Heat Index 97 °F
Dew Point 71 °F
Humidity 55%
Rainfall 0.15 in
Snow Depth Not available.
UV 7 out of 12
Pollen 7.30 out of 12
Air Quality Not available.
Flu Activity Not available.
METAR KT35 292015Z AUTO 08005KT 10SM SCT085 33/22 A2984 RMK AO2 LTG DSNT E THRU SW T03260220

More Conditions Fewer Conditions

Pressure 29.84 in
Visibility 10.0 miles
Clouds Scattered Clouds 8500 ft
Heat Index 97 °F
Dew Point 71 °F
Humidity 55%
Rainfall 0.15 in
Snow Depth Not available.
UV 7 out of 12
Pollen 7.30 out of 12
Air Quality Not available.
Flu Activity Not available.
METAR KT35 292015Z AUTO 08005KT 10SM SCT085 33/22 A2984 RMK AO2 LTG DSNT E THRU SW T03260220

More Conditions Fewer Conditions

Nowcast | as of 2:56 PM CDT on August 29, 2014

Scattered thunderstorms extending from Centerville to Hearne are moving little. These storms will occasionally produce heavy rain and frequent lightning. Another area of thunderstorms is moving east along the Interstate 20 corridor near the possum kingdom...Breckenridge and Cisco areas. These storms should approach The Fort Worth area 5 to 6 PM and Dallas 6 to 7 PM. Brief heavy rain and frequent lightning will accompany these storms as well.

×

10-Day Weather Forecast

Almanac

Astronomy

Aug. 29, 2014 Rise Set
Actual Time 7:01 AM CDT 7:53 PM CDT
Civil Twilight 6:37 AM CDT 8:18 PM CDT
Nautical Twilight 6:08 AM CDT 8:47 PM CDT
Astronomical Twilight 5:38 AM CDT 9:17 PM CDT
Moon 10:34 AM CDT 10:11 PM CDT
Length of Visible Light 13h 41m
Length of Day
12h 51m
Tomorrow will be 1m 46s shorter.
Waxing Crescent, 16% of the Moon is Illuminated
Today
Waxing Crescent
Sep 2
First Quarter
Sep 8
Full
Sep 15
Last Quarter
Sep 24
New

Today's Extremes

State Highs State Lows

Community

WunderPhotos

Upload Photos

1,748,341 photos uploaded!

Nearby

Snow Depth

Station Depth Elevation
No new snow has been reported.

Earthquake Activity

City Distance Mag. Time & Date
No recent earthquake activity has been reported nearby.
Minimum magnitude displayed is 2.5.

Coastal Water Temperatures

Place Temperature
No Stations Reporting

Nearby Weather Stations